Time;durP1;ratioP1;P1;durP2;ratioP2;P2;SDS_P1;SDS_P2;PMS_P1;PMS_P2;Temp;Humidity;BMP_temperature;BMP_pressure;BME280_temperature;BME280_humidity;BME280_pressure;Samples;Min_cycle;Max_cycle;Signal;HPM_P1;HPM_P2
2023/11/26 00:00:10;;;;;;;1.67;0.90;;;4.00;99.90;;;;;;5053216;28;20205;-61
2023/11/26 00:02:38;;;;;;;1.30;0.97;;;4.00;99.90;;;;;;5053176;28;20238;-63
2023/11/26 00:05:05;;;;;;;1.77;0.93;;;4.00;99.90;;;;;;5053053;28;20228;-60
2023/11/26 00:07:32;;;;;;;0.80;0.80;;;3.90;99.90;;;;;;5052166;28;20202;-63
2023/11/26 00:09:59;;;;;;;1.60;0.83;;;3.80;99.90;;;;;;5051936;28;20694;-60
2023/11/26 00:12:26;;;;;;;3.90;1.20;;;3.80;99.90;;;;;;5051765;28;20237;-62
2023/11/26 00:14:53;;;;;;;1.27;1.03;;;3.90;99.90;;;;;;5052600;28;20202;-61
2023/11/26 00:17:22;;;;;;;1.40;0.80;;;3.80;99.90;;;;;;5052149;28;20240;-61
2023/11/26 00:19:49;;;;;;;2.03;1.40;;;3.90;99.90;;;;;;5052261;28;20549;-61
2023/11/26 00:22:16;;;;;;;3.57;1.10;;;3.90;99.90;;;;;;5052560;28;20615;-57
2023/11/26 00:24:42;;;;;;;3.30;1.10;;;4.00;99.90;;;;;;5052304;28;20225;-57
2023/11/26 00:27:09;;;;;;;2.33;1.20;;;4.00;99.90;;;;;;5052475;28;20218;-58
2023/11/26 00:29:40;;;;;;;3.67;0.90;;;4.10;99.90;;;;;;5052253;28;20232;-57
2023/11/26 00:32:07;;;;;;;3.00;1.13;;;4.30;99.90;;;;;;5052549;28;20237;-60
2023/11/26 00:34:35;;;;;;;3.07;1.30;;;4.40;99.90;;;;;;5052264;28;20202;-58
2023/11/26 00:37:02;;;;;;;2.57;1.20;;;4.60;99.90;;;;;;5052392;28;20217;-59
2023/11/26 00:39:29;;;;;;;2.90;1.50;;;4.60;99.90;;;;;;5052208;28;20255;-57
2023/11/26 00:41:57;;;;;;;2.50;1.47;;;4.80;99.90;;;;;;5051768;28;20229;-59
2023/11/26 00:44:25;;;;;;;2.40;1.63;;;4.90;99.90;;;;;;5051732;28;20209;-60
2023/11/26 00:46:52;;;;;;;4.73;2.00;;;5.00;99.90;;;;;;5051225;28;20228;-58
2023/11/26 00:49:19;;;;;;;4.10;2.00;;;5.10;99.90;;;;;;5051265;28;20240;-57
2023/11/26 00:51:47;;;;;;;3.17;2.10;;;5.00;99.90;;;;;;5051003;28;20236;-60
2023/11/26 00:54:14;;;;;;;4.93;1.93;;;4.90;99.90;;;;;;5051633;28;20214;-57
2023/11/26 00:56:40;;;;;;;3.33;2.07;;;4.90;99.90;;;;;;5051209;28;20201;-58
2023/11/26 00:59:07;;;;;;;5.53;2.10;;;4.90;99.90;;;;;;5051821;28;20210;-58
2023/11/26 01:01:34;;;;;;;3.53;2.20;;;4.80;99.90;;;;;;5051803;28;20593;-59
2023/11/26 01:04:00;;;;;;;3.10;2.17;;;4.80;99.90;;;;;;5051822;28;20675;-58
2023/11/26 01:06:27;;;;;;;4.40;2.77;;;4.90;99.90;;;;;;5051350;28;20208;-57
2023/11/26 01:08:55;;;;;;;3.43;2.30;;;4.90;99.90;;;;;;5051125;28;20675;-58
2023/11/26 01:11:22;;;;;;;3.33;2.33;;;4.90;99.90;;;;;;5049670;28;20707;-59
2023/11/26 01:13:49;;;;;;;3.47;2.20;;;5.00;99.90;;;;;;5051158;28;20225;-57
2023/11/26 01:16:15;;;;;;;4.50;2.53;;;5.20;99.90;;;;;;5051495;28;20217;-57
2023/11/26 01:18:42;;;;;;;3.00;2.30;;;5.20;99.90;;;;;;5051651;28;20209;-59
2023/11/26 01:21:09;;;;;;;4.30;2.43;;;5.30;99.90;;;;;;5051278;28;20253;-57
2023/11/26 01:23:36;;;;;;;2.83;2.50;;;5.40;99.90;;;;;;5051539;28;20612;-59
2023/11/26 01:26:05;;;;;;;3.03;2.30;;;5.40;99.90;;;;;;5051471;28;20634;-58
2023/11/26 01:28:32;;;;;;;3.23;2.40;;;5.40;99.90;;;;;;5051935;28;20635;-57
2023/11/26 01:30:58;;;;;;;3.90;2.50;;;5.30;99.90;;;;;;5050920;28;20589;-59
2023/11/26 01:33:25;;;;;;;3.43;2.40;;;5.30;99.90;;;;;;5051287;28;20550;-57
2023/11/26 01:35:52;;;;;;;3.87;2.33;;;5.30;99.90;;;;;;5050830;28;20202;-57
2023/11/26 01:38:18;;;;;;;3.63;2.23;;;5.40;99.90;;;;;;5051720;28;20209;-58
2023/11/26 01:40:45;;;;;;;3.50;2.60;;;5.40;99.90;;;;;;5051513;28;20205;-58
2023/11/26 01:43:14;;;;;;;4.80;2.50;;;5.50;99.90;;;;;;5051792;28;20244;-57
2023/11/26 01:45:39;;;;;;;3.60;2.40;;;5.60;99.90;;;;;;5051323;28;20210;-60
2023/11/26 01:48:06;;;;;;;4.33;2.50;;;5.70;99.90;;;;;;5051428;28;20198;-57
2023/11/26 01:50:33;;;;;;;4.53;2.63;;;5.80;99.90;;;;;;5051750;28;20676;-58
2023/11/26 01:53:00;;;;;;;4.07;2.80;;;5.80;99.90;;;;;;5051594;28;20229;-57
2023/11/26 01:55:27;;;;;;;3.30;2.90;;;5.90;99.90;;;;;;5050979;28;20622;-59
2023/11/26 01:57:54;;;;;;;4.83;3.40;;;5.80;99.90;;;;;;5051079;28;20294;-58
2023/11/26 02:00:23;;;;;;;4.47;3.00;;;5.50;99.90;;;;;;5051078;28;20217;-58
2023/11/26 02:02:49;;;;;;;4.73;2.63;;;5.40;99.90;;;;;;5051183;28;20615;-57
2023/11/26 02:05:17;;;;;;;5.83;2.83;;;5.40;99.90;;;;;;5051133;28;20649;-58
2023/11/26 02:07:44;;;;;;;6.00;3.47;;;5.50;99.90;;;;;;5051154;28;20233;-58
2023/11/26 02:10:12;;;;;;;5.77;3.70;;;5.40;99.90;;;;;;5050983;28;20568;-58
2023/11/26 02:12:39;;;;;;;4.60;3.67;;;5.40;99.90;;;;;;5050794;28;20287;-58
2023/11/26 02:15:09;;;;;;;5.67;3.60;;;5.40;99.90;;;;;;5050790;28;20206;-59
2023/11/26 02:17:37;;;;;;;5.70;3.23;;;5.50;99.90;;;;;;5053195;28;20259;-58
2023/11/26 02:20:05;;;;;;;3.43;3.03;;;5.60;99.90;;;;;;5054792;28;20259;-59
2023/11/26 02:22:32;;;;;;;6.30;3.53;;;5.70;99.90;;;;;;5054859;28;20229;-58
2023/11/26 02:25:00;;;;;;;4.90;3.20;;;5.80;99.90;;;;;;5055041;28;20233;-62
2023/11/26 02:27:27;;;;;;;6.87;3.50;;;5.80;99.90;;;;;;5054397;28;20296;-59
2023/11/26 02:29:54;;;;;;;4.27;3.27;;;5.90;99.90;;;;;;5054455;28;20214;-58
2023/11/26 02:32:20;;;;;;;4.03;3.07;;;5.90;99.90;;;;;;5054449;28;20226;-57
2023/11/26 02:34:47;;;;;;;4.87;3.13;;;6.00;99.90;;;;;;5054625;28;20206;-61
2023/11/26 02:37:14;;;;;;;4.60;3.03;;;5.90;99.90;;;;;;5054490;28;20216;-58
2023/11/26 02:39:40;;;;;;;3.40;2.80;;;5.90;99.90;;;;;;5054530;28;20205;-58
2023/11/26 02:42:08;;;;;;;4.60;2.93;;;5.80;99.90;;;;;;5054385;28;20354;-58
2023/11/26 02:44:35;;;;;;;5.33;2.80;;;5.70;99.90;;;;;;5054425;28;20425;-58
2023/11/26 02:47:03;;;;;;;5.30;3.17;;;5.60;99.90;;;;;;5054356;28;20205;-58
2023/11/26 02:49:30;;;;;;;3.90;2.93;;;5.60;99.90;;;;;;5054358;28;20205;-59
2023/11/26 02:51:56;;;;;;;5.80;2.80;;;5.40;99.90;;;;;;5053980;28;20226;-58
2023/11/26 02:54:24;;;;;;;4.50;3.10;;;5.40;99.90;;;;;;5054138;28;20331;-58
2023/11/26 02:56:51;;;;;;;5.20;3.40;;;5.30;99.90;;;;;;5054088;28;20733;-58
2023/11/26 02:59:19;;;;;;;7.17;3.40;;;5.10;99.90;;;;;;5054597;28;20209;-57
2023/11/26 03:01:47;;;;;;;5.63;3.50;;;5.00;99.90;;;;;;5054126;28;20221;-59
2023/11/26 03:04:19;;;;;;;5.03;3.30;;;5.00;99.90;;;;;;5054298;28;20205;-60
2023/11/26 03:06:46;;;;;;;5.57;3.73;;;5.10;99.90;;;;;;5053848;28;20206;-57
2023/11/26 03:09:35;;;;;;;3.90;3.50;;;5.10;99.90;;;;;;5053860;28;20210;-58
2023/11/26 03:14:51;;;;;;;5.03;4.03;;;5.50;99.90;;;;;;5053970;28;20247;-57
2023/11/26 03:17:18;;;;;;;7.53;3.83;;;5.60;99.90;;;;;;5053736;28;20210;-57
2023/11/26 03:19:47;;;;;;;6.53;4.13;;;5.80;99.90;;;;;;5053944;28;20213;-58
2023/11/26 03:22:15;;;;;;;5.77;4.00;;;5.90;99.90;;;;;;5053947;28;20221;-57
2023/11/26 03:24:42;;;;;;;7.67;4.47;;;6.00;99.90;;;;;;5053736;28;20237;-57
2023/11/26 03:27:12;;;;;;;7.03;4.40;;;6.00;99.90;;;;;;5053200;28;20236;-58
2023/11/26 03:29:39;;;;;;;5.43;4.23;;;6.00;99.90;;;;;;5053241;28;20219;-57
2023/11/26 03:32:07;;;;;;;8.03;4.33;;;6.00;99.90;;;;;;5053011;28;20236;-57
2023/11/26 03:34:34;;;;;;;7.87;4.47;;;5.90;99.90;;;;;;5053274;28;20472;-58
2023/11/26 03:37:01;;;;;;;7.63;4.40;;;5.90;99.90;;;;;;5052740;28;20210;-57
2023/11/26 03:39:30;;;;;;;4.63;3.67;;;5.80;99.90;;;;;;5052569;28;20221;-57
2023/11/26 03:41:57;;;;;;;5.47;4.50;;;5.70;99.90;;;;;;5052047;28;20312;-60
2023/11/26 03:44:23;;;;;;;6.00;4.00;;;5.70;99.90;;;;;;5052707;28;20213;-58
2023/11/26 03:46:51;;;;;;;7.27;4.50;;;5.70;99.90;;;;;;5052016;28;20209;-57
2023/11/26 03:49:19;;;;;;;8.63;5.07;;;5.70;99.90;;;;;;5052551;28;20301;-57
2023/11/26 03:51:46;;;;;;;7.30;4.47;;;5.80;99.90;;;;;;5052391;28;20281;-57
2023/11/26 03:54:13;;;;;;;6.77;4.40;;;5.80;99.90;;;;;;5052400;28;20210;-57
2023/11/26 03:56:40;;;;;;;6.83;4.60;;;5.70;99.90;;;;;;5052821;28;20252;-58
2023/11/26 03:59:06;;;;;;;6.43;4.00;;;5.70;99.90;;;;;;5052938;28;20202;-59
2023/11/26 04:01:33;;;;;;;4.70;4.10;;;5.70;99.90;;;;;;5052387;28;20221;-58
2023/11/26 04:04:00;;;;;;;7.70;4.40;;;5.70;99.90;;;;;;5052663;28;20263;-57
2023/11/26 04:06:28;;;;;;;7.13;4.70;;;5.70;99.90;;;;;;5052869;28;20206;-57
2023/11/26 04:08:55;;;;;;;5.03;4.00;;;5.70;99.90;;;;;;5052635;28;20259;-57
2023/11/26 04:11:22;;;;;;;8.00;4.40;;;5.80;99.90;;;;;;5078390;22;20229;-58
2023/11/26 04:13:48;;;;;;;5.70;4.13;;;5.80;99.90;;;;;;5084151;28;20215;-57
2023/11/26 04:16:18;;;;;;;6.03;4.50;;;5.70;99.90;;;;;;5083949;28;20571;-57
2023/11/26 04:18:45;;;;;;;5.77;4.50;;;5.70;99.90;;;;;;5082418;28;20208;-58
2023/11/26 04:21:12;;;;;;;4.87;4.00;;;5.80;99.90;;;;;;5079670;28;20228;-57
2023/11/26 04:23:41;;;;;;;6.13;4.07;;;5.70;99.90;;;;;;5061350;28;20667;-57
2023/11/26 04:26:07;;;;;;;5.80;4.00;;;5.80;99.90;;;;;;5064113;28;20232;-57
2023/11/26 04:28:35;;;;;;;5.90;4.37;;;5.80;99.90;;;;;;5064059;28;20212;-59
2023/11/26 04:31:02;;;;;;;5.97;3.87;;;5.90;99.90;;;;;;5060445;28;20574;-58
2023/11/26 04:33:29;;;;;;;4.27;3.87;;;5.90;99.90;;;;;;5060849;28;20702;-57
2023/11/26 04:35:55;;;;;;;8.07;4.43;;;5.90;99.90;;;;;;5063579;28;20201;-57
2023/11/26 04:38:22;;;;;;;5.00;4.23;;;5.90;99.90;;;;;;5064303;28;20205;-56
2023/11/26 04:40:50;;;;;;;4.90;3.67;;;5.90;99.90;;;;;;5061114;28;20212;-57
2023/11/26 04:43:17;;;;;;;5.57;3.40;;;5.90;99.90;;;;;;5060445;28;20393;-56
2023/11/26 04:45:44;;;;;;;5.87;3.33;;;5.90;99.90;;;;;;5061672;28;20205;-56
2023/11/26 04:48:10;;;;;;;4.83;3.50;;;5.90;99.90;;;;;;5063689;28;20216;-56
2023/11/26 04:50:37;;;;;;;7.80;3.67;;;5.80;99.90;;;;;;5063483;28;20213;-56
2023/11/26 04:53:04;;;;;;;4.20;3.10;;;5.80;99.90;;;;;;5060961;28;20471;-57
2023/11/26 04:55:31;;;;;;;6.20;3.20;;;5.80;99.90;;;;;;5060670;28;20260;-57
2023/11/26 04:57:59;;;;;;;6.43;3.27;;;5.70;99.90;;;;;;5063959;28;20201;-57
2023/11/26 05:00:25;;;;;;;4.23;3.10;;;5.70;99.90;;;;;;5064205;28;20197;-57
2023/11/26 05:02:53;;;;;;;5.17;3.27;;;5.50;99.90;;;;;;5060848;28;20227;-57
2023/11/26 05:05:20;;;;;;;4.80;2.97;;;5.50;99.90;;;;;;5060228;28;20599;-56
2023/11/26 05:07:47;;;;;;;5.23;3.10;;;5.30;99.90;;;;;;5061635;28;20209;-56
2023/11/26 05:10:15;;;;;;;5.60;2.83;;;5.20;99.90;;;;;;5063081;28;20205;-57
2023/11/26 05:12:43;;;;;;;8.57;3.90;;;5.20;99.90;;;;;;5061642;28;20309;-56
2023/11/26 05:15:12;;;;;;;4.73;3.47;;;5.20;99.90;;;;;;5059561;28;20209;-56
2023/11/26 05:17:38;;;;;;;7.93;3.23;;;5.20;99.90;;;;;;5060289;28;20213;-56
2023/11/26 05:20:07;;;;;;;4.40;3.10;;;5.30;99.90;;;;;;5062852;28;20213;-56
2023/11/26 05:22:34;;;;;;;5.67;3.23;;;5.40;99.90;;;;;;5062727;28;20243;-56
2023/11/26 05:25:00;;;;;;;4.97;3.23;;;5.50;99.90;;;;;;5059372;28;20516;-56
2023/11/26 05:27:27;;;;;;;6.83;3.30;;;5.60;99.90;;;;;;5059223;28;20210;-58
2023/11/26 05:29:54;;;;;;;4.63;3.03;;;5.70;99.90;;;;;;5061761;28;20209;-58
2023/11/26 05:32:22;;;;;;;4.17;2.70;;;5.70;99.90;;;;;;5062318;28;20613;-57
2023/11/26 05:34:49;;;;;;;6.67;2.97;;;5.80;99.90;;;;;;5061116;28;20240;-56
2023/11/26 05:37:16;;;;;;;5.87;3.23;;;5.80;99.90;;;;;;5059037;28;20667;-57
2023/11/26 05:39:43;;;;;;;5.40;3.27;;;5.80;99.90;;;;;;5060015;28;20201;-57
2023/11/26 05:42:09;;;;;;;4.37;3.17;;;5.80;99.90;;;;;;5062114;28;20565;-56
2023/11/26 05:44:36;;;;;;;8.60;5.13;;;5.80;99.90;;;;;;5062599;28;20232;-57
2023/11/26 05:47:03;;;;;;;3.90;3.20;;;5.80;99.90;;;;;;5059121;28;20480;-58
2023/11/26 05:49:31;;;;;;;5.07;2.83;;;5.90;99.90;;;;;;5059138;28;20201;-57
2023/11/26 05:51:58;;;;;;;3.80;2.50;;;5.90;99.90;;;;;;5064792;28;20565;-58
2023/11/26 05:54:25;;;;;;;3.93;2.30;;;5.90;99.90;;;;;;5066941;28;20205;-57
2023/11/26 05:56:52;;;;;;;4.77;2.50;;;6.00;99.90;;;;;;5064448;28;20208;-58
2023/11/26 05:59:18;;;;;;;5.80;3.30;;;6.10;99.90;;;;;;5063594;28;20209;-57
2023/11/26 06:01:45;;;;;;;4.07;2.37;;;6.10;99.90;;;;;;5064352;28;20236;-58
2023/11/26 06:04:12;;;;;;;4.13;2.27;;;6.20;99.90;;;;;;5066600;28;20292;-57
2023/11/26 06:06:39;;;;;;;4.77;2.50;;;6.20;99.90;;;;;;5066445;28;20553;-58
2023/11/26 06:09:06;;;;;;;4.93;2.80;;;6.30;99.90;;;;;;5063054;28;20671;-57
2023/11/26 06:11:33;;;;;;;4.43;3.47;;;6.30;99.90;;;;;;5062799;28;20252;-57
2023/11/26 06:14:00;;;;;;;4.53;2.70;;;6.30;99.90;;;;;;5065961;28;20266;-58
2023/11/26 06:16:26;;;;;;;4.67;2.80;;;6.30;99.90;;;;;;5066245;28;20201;-57
2023/11/26 06:18:53;;;;;;;5.93;3.50;;;6.30;99.90;;;;;;5063828;28;20205;-57
2023/11/26 06:21:20;;;;;;;6.57;3.63;;;6.30;99.90;;;;;;5062456;28;20663;-58
2023/11/26 06:23:49;;;;;;;5.07;2.93;;;6.40;99.90;;;;;;5064173;28;20212;-57
2023/11/26 06:26:17;;;;;;;5.57;2.40;;;6.50;99.90;;;;;;5066074;28;20232;-57
2023/11/26 06:28:44;;;;;;;13.20;7.27;;;6.50;99.90;;;;;;5064938;28;20709;-58
2023/11/26 06:31:18;;;;;;;2.70;1.83;;;6.50;99.90;;;;;;5062671;28;20201;-58
2023/11/26 06:33:45;;;;;;;6.13;2.77;;;6.50;99.90;;;;;;5063580;28;20228;-57
2023/11/26 06:36:17;;;;;;;6.17;3.60;;;6.60;99.90;;;;;;5065960;28;20209;-57
2023/11/26 06:38:44;;;;;;;6.57;2.60;;;6.50;99.90;;;;;;5064931;28;20258;-57
2023/11/26 06:41:21;;;;;;;3.63;2.43;;;6.40;99.90;;;;;;5062317;28;20209;-57
2023/11/26 06:43:48;;;;;;;3.07;1.90;;;6.40;99.90;;;;;;5063929;28;20579;-59
2023/11/26 06:46:18;;;;;;;3.60;1.70;;;6.40;99.90;;;;;;5065857;28;20197;-58
2023/11/26 06:48:45;;;;;;;3.47;2.20;;;6.50;99.90;;;;;;5064418;28;20657;-57
2023/11/26 06:51:12;;;;;;;5.40;2.73;;;6.50;99.90;;;;;;5062042;28;20205;-58
2023/11/26 06:53:39;;;;;;;4.60;1.77;;;6.60;99.90;;;;;;5062327;28;20236;-58
2023/11/26 06:56:06;;;;;;;2.57;1.70;;;6.60;99.90;;;;;;5065406;28;20201;-59
2023/11/26 06:58:37;;;;;;;3.33;1.50;;;6.60;99.90;;;;;;5065312;28;20291;-58
2023/11/26 07:01:05;;;;;;;5.57;1.33;;;6.70;99.90;;;;;;5062210;28;20202;-58
2023/11/26 07:03:32;;;;;;;2.57;1.47;;;6.70;99.90;;;;;;5061538;28;20208;-57
2023/11/26 07:05:59;;;;;;;2.33;1.40;;;6.70;99.90;;;;;;5064661;28;20201;-57
2023/11/26 07:08:26;;;;;;;2.10;1.40;;;6.60;99.90;;;;;;5065760;28;20565;-58
2023/11/26 07:10:53;;;;;;;2.67;1.90;;;6.50;99.90;;;;;;5063209;28;20255;-57
2023/11/26 07:13:20;;;;;;;4.57;1.80;;;6.20;99.90;;;;;;5061588;28;20364;-57
2023/11/26 07:15:48;;;;;;;3.53;1.90;;;6.10;99.90;;;;;;5063039;28;20220;-58
2023/11/26 07:18:15;;;;;;;4.30;1.50;;;6.00;99.90;;;;;;5065354;28;20204;-58
2023/11/26 07:20:42;;;;;;;2.17;1.50;;;6.10;99.90;;;;;;5064606;28;20201;-57
2023/11/26 07:23:09;;;;;;;3.63;1.90;;;6.00;99.90;;;;;;5063367;28;20237;-57
2023/11/26 07:25:37;;;;;;;5.40;2.57;;;6.00;99.90;;;;;;5062100;28;20575;-57
2023/11/26 07:28:07;;;;;;;2.63;1.50;;;6.10;99.90;;;;;;5062175;28;20260;-58
2023/11/26 07:30:33;;;;;;;4.00;2.30;;;6.10;99.90;;;;;;5062105;28;20667;-57
2023/11/26 07:33:01;;;;;;;5.27;1.87;;;6.10;99.90;;;;;;5064860;28;20268;-57
2023/11/26 07:35:30;;;;;;;2.77;1.30;;;6.10;99.90;;;;;;5065204;28;20201;-57
2023/11/26 07:37:56;;;;;;;3.40;1.83;;;6.10;99.90;;;;;;5062398;28;20280;-57
2023/11/26 07:40:23;;;;;;;2.57;1.57;;;6.10;99.90;;;;;;5061885;28;20213;-57
2023/11/26 07:42:50;;;;;;;2.97;1.40;;;6.10;99.90;;;;;;5063119;28;20221;-57
2023/11/26 07:45:18;;;;;;;4.00;1.80;;;6.20;99.90;;;;;;5064631;28;20492;-58
2023/11/26 07:47:44;;;;;;;3.00;1.50;;;6.30;99.90;;;;;;5063786;28;20262;-58
2023/11/26 07:50:12;;;;;;;4.03;1.60;;;6.30;99.90;;;;;;5061193;28;20667;-58
2023/11/26 07:52:39;;;;;;;4.47;2.77;;;6.40;99.90;;;;;;5060726;28;20971;-56
2023/11/26 07:55:07;;;;;;;4.67;2.60;;;6.50;99.90;;;;;;5064445;28;20211;-57
2023/11/26 07:57:34;;;;;;;4.13;2.93;;;6.60;99.90;;;;;;5064217;28;20207;-57
2023/11/26 08:00:02;;;;;;;4.37;2.60;;;6.70;99.90;;;;;;5061214;28;20201;-57
2023/11/26 08:02:29;;;;;;;3.07;1.97;;;6.80;99.90;;;;;;5061496;28;20218;-57
2023/11/26 08:04:56;;;;;;;5.67;2.73;;;6.90;99.90;;;;;;5063045;28;20208;-56
2023/11/26 08:07:26;;;;;;;4.20;2.27;;;7.00;99.90;;;;;;5063764;28;20201;-57
2023/11/26 08:09:52;;;;;;;3.07;2.30;;;7.10;99.90;;;;;;5062135;28;20231;-57
2023/11/26 08:12:20;;;;;;;3.73;2.50;;;7.10;99.90;;;;;;5060467;28;20233;-57
2023/11/26 08:14:48;;;;;;;3.27;1.90;;;7.20;99.90;;;;;;5060758;28;20244;-57
2023/11/26 08:17:15;;;;;;;3.27;1.90;;;7.20;99.90;;;;;;5063673;28;20603;-58
2023/11/26 08:19:43;;;;;;;9.07;3.53;;;7.30;99.90;;;;;;5063341;28;20293;-58
2023/11/26 08:22:11;;;;;;;3.97;1.63;;;7.30;99.90;;;;;;5060258;28;20217;-58
2023/11/26 08:24:42;;;;;;;2.77;1.80;;;7.40;99.90;;;;;;5060334;28;20229;-57
2023/11/26 08:27:09;;;;;;;2.67;1.70;;;7.50;99.90;;;;;;5060130;28;20202;-57
2023/11/26 08:29:36;;;;;;;3.07;2.07;;;7.60;99.90;;;;;;5060204;28;20784;-57
2023/11/26 08:32:04;;;;;;;16.73;11.73;;;7.60;99.90;;;;;;5063142;28;20229;-57
2023/11/26 08:34:37;;;;;;;31.20;23.27;;;7.70;99.90;;;;;;5063383;28;20299;-56
2023/11/26 08:37:05;;;;;;;18.97;13.93;;;7.60;99.90;;;;;;5060205;28;20643;-57
2023/11/26 08:39:34;;;;;;;7.67;4.70;;;7.40;99.90;;;;;;5060192;28;20213;-57
2023/11/26 08:42:04;;;;;;;5.33;2.37;;;7.40;99.90;;;;;;5062825;28;20295;-57
2023/11/26 08:44:32;;;;;;;3.10;1.80;;;7.50;99.90;;;;;;5063544;28;20225;-57
2023/11/26 08:46:59;;;;;;;4.27;1.90;;;7.60;99.90;;;;;;5060655;28;20258;-58
2023/11/26 08:49:27;;;;;;;4.13;2.27;;;7.70;99.90;;;;;;5060267;28;20244;-57
2023/11/26 08:51:54;;;;;;;3.70;2.00;;;7.80;99.90;;;;;;5061791;28;20230;-57
2023/11/26 08:54:21;;;;;;;5.73;2.70;;;7.90;99.90;;;;;;5063361;28;20231;-57
2023/11/26 08:56:48;;;;;;;4.07;2.73;;;8.00;99.90;;;;;;5062126;28;20208;-58
2023/11/26 08:59:16;;;;;;;8.93;5.13;;;8.10;99.90;;;;;;5059735;28;20197;-57
2023/11/26 09:01:43;;;;;;;6.57;3.37;;;8.20;99.90;;;;;;5059244;28;20244;-57
2023/11/26 09:04:10;;;;;;;4.10;2.90;;;8.30;99.90;;;;;;5063428;28;20197;-57
2023/11/26 09:06:37;;;;;;;5.10;2.13;;;8.50;99.90;;;;;;5063280;28;20201;-57
2023/11/26 09:09:04;;;;;;;4.53;2.30;;;8.60;99.90;;;;;;5059560;28;20565;-57
2023/11/26 09:11:31;;;;;;;4.93;2.30;;;8.60;99.90;;;;;;5059432;28;20282;-57
2023/11/26 09:13:58;;;;;;;4.70;2.23;;;8.60;99.90;;;;;;5061944;28;20224;-63
2023/11/26 09:16:29;;;;;;;2.93;2.33;;;8.40;99.90;;;;;;5063267;28;20258;-59
2023/11/26 09:18:56;;;;;;;2.97;2.00;;;8.60;99.90;;;;;;5063317;28;20263;-56
2023/11/26 09:21:23;;;;;;;4.70;2.40;;;8.70;99.90;;;;;;5065445;28;20276;-56
2023/11/26 09:23:51;;;;;;;8.17;3.87;;;8.80;99.90;;;;;;5060332;28;20201;-57
2023/11/26 09:26:18;;;;;;;5.47;2.60;;;8.80;99.90;;;;;;5062481;28;20201;-57
2023/11/26 09:28:45;;;;;;;5.23;2.50;;;8.80;99.90;;;;;;5054518;28;20587;-57
2023/11/26 09:31:12;;;;;;;4.40;2.83;;;8.80;99.90;;;;;;5062824;28;20201;-56
2023/11/26 09:33:40;;;;;;;6.67;2.50;;;8.90;99.90;;;;;;5063260;28;20252;-57
2023/11/26 09:36:07;;;;;;;6.37;2.63;;;8.90;99.90;;;;;;5062536;28;20208;-57
2023/11/26 09:38:37;;;;;;;11.77;6.83;;;8.90;99.90;;;;;;5062706;28;20259;-57
2023/11/26 09:41:04;;;;;;;4.07;2.63;;;8.90;99.90;;;;;;5062915;28;20208;-57
2023/11/26 09:43:32;;;;;;;4.57;2.30;;;8.80;99.90;;;;;;5062664;28;20258;-57
2023/11/26 09:45:58;;;;;;;5.67;2.63;;;8.80;99.90;;;;;;5052124;28;20236;-56
2023/11/26 09:48:26;;;;;;;3.40;2.40;;;8.90;99.90;;;;;;5051457;28;20300;-57
2023/11/26 09:50:54;;;;;;;9.93;6.77;;;9.00;99.90;;;;;;5051027;28;20206;-57
2023/11/26 09:53:21;;;;;;;6.40;3.13;;;9.00;99.90;;;;;;5051097;28;20261;-58
2023/11/26 09:55:49;;;;;;;8.60;3.10;;;9.00;99.90;;;;;;5050963;28;20303;-57
2023/11/26 09:58:16;;;;;;;6.13;2.50;;;8.90;99.90;;;;;;5051288;28;20464;-56
2023/11/26 10:00:42;;;;;;;5.50;3.50;;;8.90;99.90;;;;;;5050989;28;20224;-56
2023/11/26 10:03:09;;;;;;;7.73;3.83;;;8.80;99.90;;;;;;5050852;28;20217;-57
2023/11/26 10:05:36;;;;;;;6.70;3.40;;;8.70;99.90;;;;;;5050772;28;20813;-56
2023/11/26 10:08:05;;;;;;;7.80;3.97;;;8.80;99.90;;;;;;5050958;28;20212;-57
2023/11/26 10:10:32;;;;;;;5.30;3.20;;;8.90;99.90;;;;;;5051298;28;20263;-56
2023/11/26 10:13:00;;;;;;;6.87;3.20;;;9.00;99.90;;;;;;5072618;22;20232;-59
2023/11/26 10:15:28;;;;;;;5.20;3.03;;;9.10;99.90;;;;;;5038945;28;20678;-59
2023/11/26 10:18:00;;;;;;;6.07;3.40;;;9.20;99.90;;;;;;5040780;28;20292;-58
2023/11/26 10:20:27;;;;;;;6.37;4.00;;;9.40;99.90;;;;;;5042451;28;20198;-59
2023/11/26 10:22:54;;;;;;;9.77;4.17;;;9.40;99.90;;;;;;5040709;28;20312;-58
2023/11/26 10:25:24;;;;;;;7.50;4.20;;;9.40;99.90;;;;;;5039143;28;20224;-59
2023/11/26 10:27:50;;;;;;;7.83;3.40;;;9.50;99.90;;;;;;5040235;28;20234;-60
2023/11/26 10:30:25;;;;;;;7.33;3.93;;;9.40;99.90;;;;;;5038566;28;20292;-63
2023/11/26 10:33:01;;;;;;;6.97;4.10;;;9.30;99.90;;;;;;5042387;28;20240;-66
2023/11/26 10:35:45;;;;;;;11.33;3.90;;;9.30;99.90;;;;;;5042335;28;20229;-60
2023/11/26 10:38:11;;;;;;;5.33;3.10;;;9.10;99.90;;;;;;5040090;28;20210;-61
2023/11/26 10:40:41;;;;;;;6.90;3.43;;;9.00;99.90;;;;;;5042826;28;20210;-61
2023/11/26 10:43:09;;;;;;;5.83;3.60;;;9.00;99.90;;;;;;5045599;28;20253;-61
2023/11/26 10:45:37;;;;;;;5.43;3.50;;;9.00;99.90;;;;;;5045675;28;20205;-60
2023/11/26 10:48:08;;;;;;;5.60;3.80;;;9.20;99.90;;;;;;5043309;28;20208;-62
2023/11/26 10:50:41;;;;;;;3.83;3.30;;;9.30;99.90;;;;;;5042509;28;20213;-61
2023/11/26 10:53:21;;;;;;;4.17;2.50;;;9.40;99.90;;;;;;5045558;28;20217;-62
2023/11/26 10:55:52;;;;;;;6.67;3.13;;;9.60;99.90;;;;;;5045301;28;20205;-64
2023/11/26 10:58:22;;;;;;;7.10;3.27;;;9.60;99.90;;;;;;5042501;28;20206;-62
2023/11/26 11:00:52;;;;;;;3.77;2.73;;;9.80;99.90;;;;;;5042719;28;20213;-64
2023/11/26 11:03:19;;;;;;;6.90;3.03;;;10.00;99.90;;;;;;5054292;28;20226;-62
2023/11/26 11:05:48;;;;;;;16.13;9.67;;;10.10;99.90;;;;;;5045293;28;20299;-62
2023/11/26 11:08:15;;;;;;;4.87;3.37;;;10.20;99.90;;;;;;5042454;28;20305;-60
2023/11/26 11:10:52;;;;;;;4.67;2.57;;;10.40;99.90;;;;;;5039439;28;20222;-62
2023/11/26 11:13:21;;;;;;;7.77;2.90;;;10.60;99.90;;;;;;5037862;28;20225;-62
2023/11/26 11:15:49;;;;;;;6.63;2.90;;;10.70;99.90;;;;;;5042170;28;20221;-63
2023/11/26 11:18:39;;;;;;;9.50;3.13;;;10.80;99.90;;;;;;5046177;28;20206;-62
2023/11/26 11:21:09;;;;;;;4.20;2.47;;;10.70;99.90;;;;;;5041703;28;20583;-63
2023/11/26 11:23:37;;;;;;;5.00;2.40;;;10.80;99.90;;;;;;5033780;28;20226;-64
2023/11/26 11:26:06;;;;;;;6.87;2.47;;;10.70;99.90;;;;;;5043972;28;20214;-60
2023/11/26 11:28:37;;;;;;;4.70;2.60;;;10.60;99.90;;;;;;5046791;28;20681;-64
2023/11/26 11:31:05;;;;;;;6.57;2.47;;;10.40;99.90;;;;;;5044781;28;20210;-63
2023/11/26 11:33:32;;;;;;;5.23;2.83;;;10.20;99.90;;;;;;5045435;28;20218;-57
2023/11/26 11:35:58;;;;;;;5.53;2.17;;;10.00;99.90;;;;;;5043564;28;20209;-59
2023/11/26 11:38:26;;;;;;;6.07;2.63;;;9.90;99.90;;;;;;5042144;28;20198;-57
2023/11/26 11:41:15;;;;;;;5.43;2.50;;;9.70;99.90;;;;;;5042678;28;20207;-59
2023/11/26 11:43:43;;;;;;;6.70;3.10;;;9.60;99.90;;;;;;5045520;28;20221;-61
2023/11/26 11:46:44;;;;;;;5.03;2.53;;;9.50;99.90;;;;;;5041985;28;20831;-58
2023/11/26 11:49:11;;;;;;;6.73;3.10;;;9.50;99.90;;;;;;5041754;28;20580;-59
2023/11/26 11:51:40;;;;;;;6.70;2.97;;;9.40;99.90;;;;;;5042132;28;20258;-60
2023/11/26 11:54:39;;;;;;;6.67;2.80;;;9.40;99.90;;;;;;5044962;28;20228;-59
2023/11/26 11:57:14;;;;;;;5.83;2.97;;;9.50;99.90;;;;;;5042205;28;20466;-59
2023/11/26 11:59:43;;;;;;;10.87;2.87;;;9.60;99.90;;;;;;5041898;28;20673;-60
2023/11/26 12:02:10;;;;;;;7.03;2.50;;;9.70;99.90;;;;;;5044844;28;20271;-58
2023/11/26 12:04:38;;;;;;;5.00;2.00;;;9.80;99.90;;;;;;5045114;28;20205;-59
2023/11/26 12:07:05;;;;;;;6.83;2.50;;;10.00;99.90;;;;;;5041984;28;20229;-59
2023/11/26 12:09:35;;;;;;;5.83;2.30;;;10.00;99.90;;;;;;5041426;28;20257;-58
2023/11/26 12:12:03;;;;;;;6.00;2.10;;;10.10;99.90;;;;;;5043467;28;20312;-58
2023/11/26 12:14:31;;;;;;;12.27;4.97;;;10.20;99.90;;;;;;5044573;28;20221;-58
2023/11/26 12:16:59;;;;;;;5.00;2.10;;;10.20;99.90;;;;;;5043023;28;20205;-59
2023/11/26 12:19:26;;;;;;;5.50;2.13;;;10.20;99.90;;;;;;5041230;28;20210;-59
2023/11/26 12:21:53;;;;;;;5.77;2.03;;;10.20;99.90;;;;;;5042005;28;20230;-60
2023/11/26 12:24:20;;;;;;;6.63;2.23;;;10.30;99.90;;;;;;5044511;28;20730;-61
2023/11/26 12:26:47;;;;;;;4.53;2.30;;;10.20;99.90;;;;;;5044428;28;20667;-63
2023/11/26 12:29:25;;;;;;;7.20;2.23;;;10.20;99.90;;;;;;5041143;28;20206;-59
2023/11/26 12:31:54;;;;;;;3.77;2.30;;;10.30;99.90;;;;;;5041479;28;20222;-59
2023/11/26 12:34:21;;;;;;;9.40;5.90;;;10.30;99.90;;;;;;5044529;28;20214;-62
2023/11/26 12:36:49;;;;;;;5.23;2.27;;;10.40;99.90;;;;;;5044228;28;20651;-60
2023/11/26 12:39:18;;;;;;;5.83;2.07;;;10.40;99.90;;;;;;5041071;28;20223;-59
2023/11/26 12:41:45;;;;;;;4.13;1.93;;;10.40;99.90;;;;;;5040651;28;20280;-58
2023/11/26 12:44:12;;;;;;;6.13;2.40;;;10.40;99.90;;;;;;5044019;28;20204;-60
2023/11/26 12:46:39;;;;;;;6.03;2.23;;;10.40;99.90;;;;;;5043985;28;20205;-58
2023/11/26 12:49:16;;;;;;;5.47;1.60;;;10.40;99.90;;;;;;5041600;28;20217;-59
2023/11/26 12:51:43;;;;;;;5.80;2.30;;;10.30;99.90;;;;;;5040729;28;20229;-58
2023/11/26 12:54:11;;;;;;;5.63;2.43;;;10.30;99.90;;;;;;5043586;28;20229;-58
2023/11/26 12:56:39;;;;;;;4.17;2.13;;;10.40;99.90;;;;;;5043820;28;20237;-58
2023/11/26 12:59:05;;;;;;;6.03;2.37;;;10.50;99.90;;;;;;5041319;28;20297;-60
2023/11/26 13:01:34;;;;;;;4.60;1.87;;;10.50;99.90;;;;;;5040126;28;20214;-59